Airfield :
LOGIN :

Register | Disclaimer

   EN    FR    IT 

 










Legend :    VFR   Marginal VFR   IFR   Intensive IFR   Very Intensive IFR
Visi :
Ceiling :
>= 8 km
>= 3000ft
5 to 8 km
1000 to 3000 ft
1500m to 5 km
500 to 1000 ft
800 to 1500m
200 to 500 ft
< 800m
< 200 ft
Symbols :   Thunderstorms  Fog  Heavy snow  Heavy precipitations  Wind > 20 kt
SIGMETs :     Misc.  Thunderstorms  Icing  Turbulence  Mountain Waves  Volcanic Ashes







- Airport Elevation : 699 ft
- IATA code : PAD


EDLP - Paderborn Lippstadt

CURRENT METAR :
  • 241650Z 29005KT 250V330 9999 VCSH FEW028 SCT040 09/05 Q1032

EXPIRED METARs :
  • 241620Z 30009G19KT 260V360 9999 -SHRA SCT034TCU SCT054 10/04 Q1032
  • 241550Z 30006KT 260V340 9999 VCSH SCT039TCU SCT054 10/06 Q1032
  • 241520Z 29006KT 260V320 9999 VCSH SCT034TCU SCT054 10/07 Q1032
  • 241450Z 26008KT 210V310 9999 -SHRA SCT034TCU 11/06 Q1032
  • 241420Z 26007KT 220V310 9999 SCT034TCU 10/06 Q1032 RERA

TAF TAF EDLP
Valid from the 24 at 12:00 until the 25 at 12:00 UTC


241100Z 2412/2512 30012KT 9999 SCT040
TEMPO 2412/2416 31015G30KT SHRA SCT030CB
BECMG 2417/2419 28005KT
BECMG 2420/2423 VRB03KT
No reported NOTAMs for that airfield.



MET'MAP, your aeronautical weather chart ! - Copyright ORBIFLY December 2007 - Disclaimer

ORBIFLY MET'MAP TEAM :

Programming & Development : Alexandra Zaïnal
Concept & Development : Baudouin d'Aumeries
Co-Development & Prog : Marc-Olivier Méhu
Technical & hardware support : Manuel Goepfert

Contact : metmap@orbifly.com




SOURCES & CREDITS :

   NOAA